To NAV CANADA Home Page Login to a new session Search on AWWS site Feedback and Comments Disclaimer Vers la page française équivalente Tips FAQ What's new on the site To the Forecasts and Observations / NOTAM section To "File a Flight Plan" website Publications and other links Update of the User's profile FIC Telephone Numbers My Weather Data Folder Route Weather Data Regional Weather Data Local Weather Data To the Forecasts and Observations / NOTAM section
Request Generated 07/28/2016 at 06:39:11 UTC . Weather information available at that time is displayed.

METAR/TAF

KUUJJUAQ/QC    

METAR CYVP 280600Z 10008G16KT 15SM BKN041 13/08 A2992 RMK SC7 SLP134=
METAR CYVP 280500Z 10008G15KT 15SM BKN044 13/08 A2992 RMK SC7 SLP134=
METAR CYVP 280400Z 11012KT 15SM BKN044 14/07 A2992 RMK SC7 SLP134=

TAF CYVP 280538Z 2806/2818 11012KT P6SM BKN040
FM280800 08008KT P6SM BKN015 OVC040 TEMPO 2808/2811 SCT015 BKN040
BKN080
FM281100 07012KT P6SM OVC025 TEMPO 2811/2818 P6SM -RA FEW008
OVC015
BECMG 2816/2818 06010G20KT
RMK NXT FCST BY 281200Z=
Your time UTC time
Weather data provided by Environment Canada and NAV CANADA